Maverick, South Dakota
Current Conditions -  °F | °C
As of 1:53 AM on Friday 24 Oct 2014 (Local Time) from KCUT Reporting Station
Clear Clear  
Wind Chill: 54°   Ceiling: Unl
Heat Index: 54°   Visibility: 10mi
Dew Point: 25°   Wind: 8mph
Humidity: 33%   Direction: 250°WSW
Pressure: 30.01"   Gusts: NA
Location:  43.346°N, 103.483°W
Report Text: KCUT 240753Z AUTO 25007KT 10SM CLR 12/M04 A3001 RMK AO2 SLP117 T01221039
Loading
Personal Weather Stations






























Interactive Weather Map
Tropical Storm Tracking
New forecast layout! Learn more

10-Day Weather Forecast

Advertisements
Track Severe Weather on mobile